Time;durP1;ratioP1;P1;durP2;ratioP2;P2;SDS_P1;SDS_P2;PMS_P1;PMS_P2;Temp;Humidity;BMP_temperature;BMP_pressure;BME280_temperature;BME280_humidity;BME280_pressure;Samples;Min_cycle;Max_cycle;Signal;HPM_P1;HPM_P2
2022/05/25 00:02:11;;;;;;;1.05;1.05;;;11.50;99.90;;;;;;5077493;28;20199;-83
2022/05/25 00:04:37;;;;;;;0.88;0.88;;;11.50;99.90;;;;;;5063167;28;20193;-84
2022/05/25 00:07:03;;;;;;;0.50;0.50;;;11.50;99.90;;;;;;5058098;28;20690;-84
2022/05/25 00:09:29;;;;;;;0.50;0.50;;;11.50;99.90;;;;;;5057914;28;20200;-84
2022/05/25 00:11:55;;;;;;;0.52;0.52;;;11.50;99.90;;;;;;5075600;28;20200;-84
2022/05/25 00:14:20;;;;;;;0.60;0.60;;;11.50;99.90;;;;;;5074022;28;20205;-83
2022/05/25 00:16:46;;;;;;;0.80;0.80;;;11.50;99.90;;;;;;5075387;28;20590;-84
2022/05/25 00:21:56;;;;;;;0.77;0.77;;;11.50;99.90;;;;;;5076323;28;20223;-84
2022/05/25 00:24:22;;;;;;;0.60;0.60;;;11.50;99.90;;;;;;5075264;28;20204;-84
2022/05/25 00:26:47;;;;;;;0.50;0.50;;;11.50;99.90;;;;;;5074096;28;20263;-84
2022/05/25 00:29:14;;;;;;;1.25;0.82;;;11.50;99.90;;;;;;5057394;28;20295;-83
2022/05/25 00:31:40;;;;;;;0.70;0.70;;;11.50;99.90;;;;;;5057425;28;20718;-84
2022/05/25 00:34:07;;;;;;;0.98;0.98;;;11.50;99.90;;;;;;5058644;28;20201;-82
2022/05/25 00:36:33;;;;;;;1.75;0.98;;;11.50;99.90;;;;;;5074528;28;20208;-84
2022/05/25 00:38:58;;;;;;;0.68;0.68;;;11.50;99.90;;;;;;5057389;28;20228;-83
2022/05/25 00:41:26;;;;;;;0.70;0.70;;;11.50;99.90;;;;;;5058213;28;20212;-83
2022/05/25 00:43:52;;;;;;;0.73;0.73;;;11.50;99.90;;;;;;5057482;28;20201;-83
2022/05/25 00:46:20;;;;;;;1.10;1.00;;;11.50;99.90;;;;;;5058657;28;20576;-83
2022/05/25 00:48:56;;;;;;;0.60;0.60;;;11.50;99.90;;;;;;5058416;28;20211;-81
2022/05/25 00:51:28;;;;;;;1.92;0.95;;;11.50;99.90;;;;;;5058366;28;20207;-83
2022/05/25 00:54:13;;;;;;;0.50;0.50;;;11.40;99.90;;;;;;5077724;28;20690;-85
2022/05/25 00:56:42;;;;;;;0.68;0.68;;;11.40;99.90;;;;;;5058381;28;20223;-81
2022/05/25 00:59:14;;;;;;;0.75;0.75;;;11.40;99.90;;;;;;5058852;28;20663;-82
2022/05/25 01:01:41;;;;;;;0.60;0.60;;;11.40;99.90;;;;;;5075599;28;20193;-84
2022/05/25 01:04:08;;;;;;;0.45;0.45;;;11.40;99.90;;;;;;5080626;28;20319;-83
2022/05/25 01:06:50;;;;;;;0.50;0.50;;;11.40;99.90;;;;;;5080544;28;20720;-83
2022/05/25 01:09:23;;;;;;;0.50;0.50;;;11.30;99.90;;;;;;5080655;28;20578;-81
2022/05/25 01:12:18;;;;;;;0.57;0.57;;;11.30;99.90;;;;;;5080334;28;20663;-83
2022/05/25 01:15:05;;;;;;;0.50;0.50;;;11.30;99.90;;;;;;5079297;28;20196;-82
2022/05/25 01:17:43;;;;;;;0.60;0.60;;;11.40;99.90;;;;;;5078705;28;20619;-82
2022/05/25 01:20:27;;;;;;;0.60;0.60;;;11.40;99.90;;;;;;5063738;28;20205;-84
2022/05/25 01:23:18;;;;;;;0.60;0.60;;;11.40;99.90;;;;;;5063556;28;20250;-84
2022/05/25 01:26:12;;;;;;;1.10;1.05;;;11.40;99.90;;;;;;5054421;28;20201;-85
2022/05/25 01:29:02;;;;;;;0.70;0.70;;;11.40;99.90;;;;;;5080827;28;20203;-85
2022/05/25 01:31:48;;;;;;;0.65;0.65;;;11.30;99.90;;;;;;5062444;28;20200;-84
2022/05/25 01:34:53;;;;;;;1.75;0.93;;;11.30;99.90;;;;;;5059693;28;20279;-86
2022/05/25 01:37:57;;;;;;;2.65;0.88;;;11.20;99.90;;;;;;5032725;28;20211;-85
2022/05/25 01:40:55;;;;;;;0.52;0.52;;;11.20;99.90;;;;;;5081585;28;20215;-84
2022/05/25 01:43:27;;;;;;;0.60;0.60;;;11.20;99.90;;;;;;5062348;28;20232;-83
2022/05/25 01:46:08;;;;;;;1.23;1.02;;;11.20;99.90;;;;;;5080017;28;20243;-85
2022/05/25 01:48:38;;;;;;;0.55;0.55;;;11.20;99.90;;;;;;5063174;28;20204;-83
2022/05/25 01:51:09;;;;;;;0.50;0.50;;;11.20;99.90;;;;;;5061875;28;20613;-85
2022/05/25 01:53:42;;;;;;;1.67;0.90;;;11.30;99.90;;;;;;5061816;28;20193;-83
2022/05/25 01:56:15;;;;;;;0.50;0.50;;;11.30;99.90;;;;;;5067417;28;20205;-85
2022/05/25 01:58:44;;;;;;;0.57;0.57;;;11.30;99.90;;;;;;5079739;28;20193;-84
2022/05/25 02:01:11;;;;;;;0.60;0.60;;;11.30;99.90;;;;;;5070973;28;20601;-85
2022/05/25 02:06:39;;;;;;;0.95;0.95;;;11.30;99.90;;;;;;5079633;28;20249;-82
2022/05/25 02:09:43;;;;;;;1.08;1.02;;;11.30;99.90;;;;;;5062326;28;20287;-84
2022/05/25 02:12:32;;;;;;;0.55;0.55;;;11.30;99.90;;;;;;5079316;28;20199;-85
2022/05/25 02:15:28;;;;;;;0.75;0.75;;;11.30;99.90;;;;;;5060445;28;20211;-84
2022/05/25 02:18:25;;;;;;;0.57;0.57;;;11.30;99.90;;;;;;5078984;28;20228;-83
2022/05/25 02:21:14;;;;;;;0.95;0.63;;;11.20;99.90;;;;;;5018393;28;20648;-83
2022/05/25 02:23:56;;;;;;;5.22;1.65;;;11.20;99.90;;;;;;5061748;28;20196;-85
2022/05/25 02:26:29;;;;;;;0.60;0.60;;;11.20;99.90;;;;;;5061178;28;20259;-84
2022/05/25 02:29:10;;;;;;;0.60;0.60;;;11.20;99.90;;;;;;5060977;28;20197;-85
2022/05/25 02:31:42;;;;;;;0.70;0.70;;;11.20;99.90;;;;;;5060518;28;20670;-84
2022/05/25 02:34:12;;;;;;;1.45;1.05;;;11.20;99.90;;;;;;5061820;28;20291;-86
2022/05/25 02:36:39;;;;;;;1.95;0.80;;;11.20;99.90;;;;;;5078836;28;20224;-85
2022/05/25 02:39:07;;;;;;;2.30;1.52;;;11.20;99.90;;;;;;5061069;28;20235;-84
2022/05/25 02:41:42;;;;;;;1.05;1.00;;;11.20;99.90;;;;;;5078823;28;20644;-85
2022/05/25 02:44:09;;;;;;;0.80;0.75;;;11.20;99.90;;;;;;5060765;28;20663;-82
2022/05/25 02:46:34;;;;;;;0.98;0.98;;;11.20;99.90;;;;;;5060696;28;20597;-84
2022/05/25 02:49:00;;;;;;;1.08;1.05;;;11.30;99.90;;;;;;5078372;28;20189;-85
2022/05/25 02:51:26;;;;;;;2.15;1.67;;;11.30;99.90;;;;;;5061623;28;20231;-84
2022/05/25 02:54:08;;;;;;;0.85;0.85;;;11.30;99.90;;;;;;5061337;28;20280;-84
2022/05/25 02:56:34;;;;;;;2.22;1.45;;;11.20;99.90;;;;;;5077209;28;20204;-84
2022/05/25 02:59:00;;;;;;;0.80;0.70;;;11.30;99.90;;;;;;5078980;28;20623;-84
2022/05/25 03:01:26;;;;;;;1.90;1.15;;;11.30;99.90;;;;;;5069879;28;20204;-83
2022/05/25 03:03:53;;;;;;;0.63;0.63;;;11.30;99.90;;;;;;5060909;28;20208;-83
2022/05/25 03:06:18;;;;;;;1.38;1.27;;;11.30;99.90;;;;;;5059782;28;20549;-84
2022/05/25 03:08:44;;;;;;;0.85;0.82;;;11.30;99.90;;;;;;5059598;28;20223;-84
2022/05/25 03:11:10;;;;;;;1.83;1.40;;;11.30;99.90;;;;;;5059867;28;20211;-84
2022/05/25 03:13:37;;;;;;;1.30;0.88;;;11.30;99.90;;;;;;5060014;28;20684;-84
2022/05/25 03:16:05;;;;;;;0.65;0.65;;;11.30;99.90;;;;;;5059228;28;20617;-84
2022/05/25 03:18:31;;;;;;;0.60;0.60;;;11.20;99.90;;;;;;5059180;28;20221;-84
2022/05/25 03:20:57;;;;;;;1.58;1.33;;;11.20;99.90;;;;;;5059951;28;20589;-83
2022/05/25 03:23:23;;;;;;;0.60;0.60;;;11.20;99.90;;;;;;5077383;28;20254;-83
2022/05/25 03:25:49;;;;;;;1.38;1.27;;;11.30;99.90;;;;;;5058767;28;20189;-85
2022/05/25 03:28:15;;;;;;;0.60;0.60;;;11.30;99.90;;;;;;5058690;28;20609;-83
2022/05/25 03:30:42;;;;;;;1.42;0.95;;;11.30;99.90;;;;;;5071657;28;20208;-85
2022/05/25 03:33:16;;;;;;;1.40;1.13;;;11.40;99.90;;;;;;5072514;28;20190;-84
2022/05/25 03:35:43;;;;;;;0.60;0.60;;;11.30;99.90;;;;;;5060132;28;20559;-84
2022/05/25 03:38:09;;;;;;;0.82;0.82;;;11.30;99.90;;;;;;5058348;28;20205;-85
2022/05/25 03:40:36;;;;;;;0.55;0.55;;;11.30;99.90;;;;;;5056271;28;20340;-83
2022/05/25 03:43:02;;;;;;;1.30;0.95;;;11.40;99.90;;;;;;5056153;28;20193;-82
2022/05/25 03:45:27;;;;;;;2.55;1.17;;;11.30;99.90;;;;;;5054581;28;20197;-83
2022/05/25 03:47:53;;;;;;;0.88;0.88;;;11.30;99.90;;;;;;5055780;28;20201;-85
2022/05/25 03:50:19;;;;;;;0.93;0.93;;;11.30;99.90;;;;;;5058025;28;20363;-84
2022/05/25 03:52:46;;;;;;;2.05;1.58;;;11.30;99.90;;;;;;5059224;28;20280;-85
2022/05/25 03:55:12;;;;;;;1.60;1.40;;;11.30;99.90;;;;;;5076846;28;20206;-85
2022/05/25 03:57:37;;;;;;;1.30;0.90;;;11.30;99.90;;;;;;5056574;28;20686;-82
2022/05/25 04:00:05;;;;;;;1.15;1.05;;;11.30;99.90;;;;;;5058189;28;20598;-83
2022/05/25 04:02:31;;;;;;;1.98;1.80;;;11.30;99.90;;;;;;5059569;28;20323;-83
2022/05/25 04:05:08;;;;;;;1.02;0.90;;;11.30;99.90;;;;;;5078795;28;20234;-82
2022/05/25 04:07:40;;;;;;;5.55;2.25;;;11.40;99.90;;;;;;5059475;28;20200;-81
2022/05/25 04:10:06;;;;;;;1.15;1.05;;;11.40;99.90;;;;;;5060228;28;20212;-83
2022/05/25 04:12:33;;;;;;;1.02;0.93;;;11.40;99.90;;;;;;5059309;28;20262;-82
2022/05/25 04:14:59;;;;;;;0.60;0.60;;;11.40;99.90;;;;;;5060639;28;20728;-83
2022/05/25 04:17:25;;;;;;;1.65;1.55;;;11.40;99.90;;;;;;5056184;28;20279;-82
2022/05/25 04:19:51;;;;;;;0.93;0.90;;;11.40;99.90;;;;;;5058112;28;20216;-82
2022/05/25 04:22:17;;;;;;;1.55;0.85;;;11.40;99.90;;;;;;5056316;28;20196;-83
2022/05/25 04:24:43;;;;;;;0.63;0.63;;;11.50;99.90;;;;;;5057255;28;20648;-82
2022/05/25 04:27:09;;;;;;;0.68;0.68;;;11.60;99.90;;;;;;5057504;28;20280;-88
2022/05/25 04:29:38;;;;;;;0.85;0.85;;;11.60;99.90;;;;;;5060503;28;20198;-90
2022/05/25 04:32:04;;;;;;;0.65;0.65;;;11.60;99.90;;;;;;5061211;28;20197;-91
2022/05/25 04:34:30;;;;;;;15.63;1.80;;;11.70;99.90;;;;;;5060680;28;20229;-88
2022/05/25 04:37:48;;;;;;;0.88;0.73;;;11.80;99.90;;;;;;5061231;28;20221;-89
2022/05/25 04:39:41;;;;;;;0.70;0.70;;;11.90;99.90;;;;;;5062401;28;20197;-90
2022/05/25 04:42:07;;;;;;;0.60;0.60;;;11.90;99.90;;;;;;5059504;28;20215;-86
2022/05/25 04:44:33;;;;;;;1.50;0.85;;;11.90;99.90;;;;;;5060397;28;20194;-89
2022/05/25 04:47:01;;;;;;;1.65;1.20;;;11.90;99.90;;;;;;5059657;28;20197;-89
2022/05/25 04:49:28;;;;;;;0.77;0.77;;;12.00;99.90;;;;;;5061107;28;20276;-89
2022/05/25 04:51:54;;;;;;;0.60;0.60;;;12.10;99.90;;;;;;5059716;28;20256;-88
2022/05/25 04:54:20;;;;;;;0.80;0.80;;;12.20;99.90;;;;;;5060527;28;20228;-92
2022/05/25 04:59:31;;;;;;;0.55;0.55;;;12.30;99.90;;;;;;5061758;28;20204;-93
2022/05/25 05:01:58;;;;;;;0.50;0.50;;;12.30;99.90;;;;;;5060443;28;20192;-93
2022/05/25 05:04:26;;;;;;;0.70;0.70;;;12.20;99.90;;;;;;5060086;28;20679;-91
2022/05/25 05:06:52;;;;;;;0.88;0.88;;;12.30;99.90;;;;;;5059858;28;20205;-90
2022/05/25 05:09:17;;;;;;;0.50;0.50;;;12.30;99.90;;;;;;5059148;28;20672;-90
2022/05/25 05:11:47;;;;;;;0.88;0.88;;;12.50;99.90;;;;;;5059823;28;20201;-90
2022/05/25 05:14:16;;;;;;;0.60;0.60;;;12.60;99.90;;;;;;5075409;28;20200;-87
2022/05/25 05:16:42;;;;;;;0.77;0.75;;;12.60;99.90;;;;;;5075641;28;20213;-87
2022/05/25 05:19:15;;;;;;;1.55;1.17;;;12.70;99.90;;;;;;5069202;28;20205;-90
2022/05/25 05:21:41;;;;;;;1.00;1.00;;;12.90;99.90;;;;;;5041591;28;20258;-87
2022/05/25 05:24:07;;;;;;;0.80;0.75;;;13.10;99.90;;;;;;5041872;28;20288;-88
2022/05/25 05:26:32;;;;;;;0.63;0.63;;;13.10;99.90;;;;;;5055052;28;20205;-91
2022/05/25 05:28:58;;;;;;;0.47;0.47;;;13.00;99.90;;;;;;5062343;28;20196;-89
2022/05/25 05:31:24;;;;;;;0.73;0.68;;;13.00;99.90;;;;;;5062187;28;20200;-90
2022/05/25 05:33:49;;;;;;;1.30;1.20;;;12.90;99.90;;;;;;5069084;28;20276;-90
2022/05/25 05:36:23;;;;;;;0.60;0.60;;;12.90;99.90;;;;;;5042549;28;20653;-90
2022/05/25 05:39:15;;;;;;;0.50;0.50;;;12.90;99.90;;;;;;5042386;28;20197;-90
2022/05/25 05:41:47;;;;;;;0.40;0.40;;;12.80;99.90;;;;;;5053962;28;20197;-89
2022/05/25 05:44:16;;;;;;;0.57;0.57;;;12.70;99.90;;;;;;5062434;28;20197;-88
2022/05/25 05:46:43;;;;;;;0.50;0.50;;;12.60;99.90;;;;;;5062042;28;20246;-88
2022/05/25 05:49:11;;;;;;;1.08;0.80;;;12.50;99.90;;;;;;5063901;28;20207;-89
2022/05/25 05:51:38;;;;;;;0.95;0.95;;;12.40;99.90;;;;;;5065742;28;20227;-88
2022/05/25 05:54:04;;;;;;;0.57;0.57;;;12.50;99.90;;;;;;5067048;28;20193;-89
2022/05/25 05:56:32;;;;;;;1.45;1.15;;;12.60;99.90;;;;;;5065919;28;20693;-89
2022/05/25 05:58:59;;;;;;;0.80;0.80;;;12.90;99.90;;;;;;5065963;28;20196;-90
2022/05/25 06:01:24;;;;;;;1.65;1.13;;;13.00;99.90;;;;;;5083790;28;20189;-88
2022/05/25 06:03:50;;;;;;;0.57;0.57;;;13.20;99.90;;;;;;5066035;28;20204;-90
2022/05/25 06:06:17;;;;;;;0.82;0.82;;;13.30;99.90;;;;;;5066482;28;20201;-90
2022/05/25 06:08:46;;;;;;;1.40;0.95;;;13.50;99.90;;;;;;5065255;28;20200;-91
2022/05/25 06:11:16;;;;;;;0.50;0.50;;;13.60;99.90;;;;;;5066156;28;20612;-90
2022/05/25 06:13:41;;;;;;;0.90;0.90;;;13.60;99.90;;;;;;5065348;28;20193;-88
2022/05/25 06:21:35;;;;;;;1.20;1.10;;;13.40;99.90;;;;;;5063008;28;20247;-89
2022/05/25 06:24:02;;;;;;;0.60;0.60;;;13.30;99.90;;;;;;5045811;28;20205;-89
2022/05/25 06:26:30;;;;;;;0.90;0.90;;;13.40;99.90;;;;;;5053541;28;20206;-92
2022/05/25 06:29:00;;;;;;;0.63;0.57;;;13.70;99.90;;;;;;5042369;28;20577;-88
2022/05/25 06:31:27;;;;;;;0.50;0.50;;;13.80;99.90;;;;;;5058497;28;20200;-86
2022/05/25 06:33:53;;;;;;;0.50;0.50;;;14.20;99.90;;;;;;5051622;28;20193;-88
2022/05/25 06:36:22;;;;;;;0.40;0.40;;;14.30;99.90;;;;;;5043087;28;20212;-90
2022/05/25 06:38:48;;;;;;;0.60;0.60;;;14.20;99.90;;;;;;5063345;28;20197;-88
2022/05/25 06:41:15;;;;;;;0.40;0.40;;;14.40;99.90;;;;;;5064412;28;20196;-88
2022/05/25 06:43:42;;;;;;;0.63;0.63;;;14.20;99.90;;;;;;5063509;28;20196;-87
2022/05/25 06:46:08;;;;;;;0.40;0.40;;;14.00;99.90;;;;;;5063461;28;20572;-86
2022/05/25 06:48:34;;;;;;;0.60;0.60;;;14.00;99.90;;;;;;5062529;28;20655;-88
2022/05/25 06:51:10;;;;;;;0.60;0.60;;;14.10;99.90;;;;;;5063226;28;20193;-85
2022/05/25 06:53:36;;;;;;;0.90;0.60;;;14.40;99.90;;;;;;5063582;28;20193;-87
2022/05/25 06:56:01;;;;;;;1.55;0.80;;;14.40;99.90;;;;;;5063005;28;20223;-88
2022/05/25 06:58:27;;;;;;;0.70;0.70;;;14.60;99.90;;;;;;5081331;28;20188;-88
2022/05/25 07:00:53;;;;;;;0.40;0.40;;;14.70;99.90;;;;;;5063840;28;20193;-90
2022/05/25 07:03:18;;;;;;;0.47;0.47;;;14.70;99.90;;;;;;5064693;28;20221;-89
2022/05/25 07:05:44;;;;;;;0.47;0.47;;;14.50;99.90;;;;;;5063686;28;20242;-89
2022/05/25 07:08:10;;;;;;;0.77;0.77;;;14.30;99.90;;;;;;5063592;28;20585;-89
2022/05/25 07:10:35;;;;;;;0.45;0.45;;;14.10;99.90;;;;;;5063176;28;20230;-89
2022/05/25 07:13:01;;;;;;;0.52;0.52;;;14.20;99.90;;;;;;5063450;28;20224;-91
2022/05/25 07:15:27;;;;;;;0.60;0.60;;;14.40;99.90;;;;;;5063463;28;20220;-89
2022/05/25 07:17:52;;;;;;;1.05;0.95;;;14.40;99.90;;;;;;5064428;28;20626;-89
2022/05/25 07:20:18;;;;;;;0.50;0.50;;;14.50;99.90;;;;;;5064213;28;20288;-89
2022/05/25 07:22:44;;;;;;;0.63;0.63;;;14.70;99.90;;;;;;5064323;28;20277;-89
2022/05/25 07:25:10;;;;;;;0.40;0.40;;;14.70;99.90;;;;;;5063348;28;20197;-88
2022/05/25 07:27:36;;;;;;;0.98;0.45;;;15.00;99.90;;;;;;5063383;28;20215;-89
2022/05/25 07:30:02;;;;;;;0.40;0.40;;;15.50;99.90;;;;;;5062805;28;20750;-89
2022/05/25 07:32:28;;;;;;;0.38;0.38;;;16.20;99.90;;;;;;5062186;28;20199;-89
2022/05/25 07:34:59;;;;;;;0.50;0.50;;;16.40;99.90;;;;;;5062282;28;20269;-88
2022/05/25 07:37:32;;;;;;;0.40;0.40;;;16.40;99.90;;;;;;5062514;28;20204;-88
2022/05/25 07:40:04;;;;;;;0.50;0.50;;;16.30;99.90;;;;;;5063366;28;20197;-90
2022/05/25 07:42:31;;;;;;;0.30;0.30;;;16.50;99.90;;;;;;5062791;28;20216;-90
2022/05/25 07:44:59;;;;;;;0.93;0.68;;;17.00;99.90;;;;;;5062231;28;20208;-89
2022/05/25 07:47:27;;;;;;;6.22;1.75;;;16.90;99.90;;;;;;5061696;28;20604;-89
2022/05/25 07:49:53;;;;;;;0.43;0.43;;;16.80;99.90;;;;;;5061323;28;20211;-86
2022/05/25 07:52:20;;;;;;;0.63;0.63;;;16.30;99.90;;;;;;5060531;28;20667;-87
2022/05/25 07:54:47;;;;;;;0.32;0.32;;;15.50;99.90;;;;;;5080314;28;20200;-89
2022/05/25 07:57:13;;;;;;;0.32;0.32;;;15.40;99.90;;;;;;5079909;28;20211;-88
2022/05/25 07:59:40;;;;;;;0.40;0.40;;;15.40;99.90;;;;;;5062191;28;20222;-88
2022/05/25 08:07:56;;;;;;;0.30;0.30;;;16.00;99.90;;;;;;5081179;28;20685;-89
2022/05/25 08:10:25;;;;;;;0.40;0.40;;;15.80;99.90;;;;;;5062512;28;20825;-88
2022/05/25 08:12:55;;;;;;;0.45;0.45;;;15.50;99.90;;;;;;5062027;28;20264;-87
2022/05/25 08:15:21;;;;;;;0.40;0.40;;;15.30;99.90;;;;;;5060321;28;20239;-88
2022/05/25 08:17:48;;;;;;;0.35;0.35;;;15.40;99.90;;;;;;5068423;28;20225;-88
2022/05/25 08:20:14;;;;;;;0.25;0.25;;;15.90;99.90;;;;;;5041783;28;20595;-87
2022/05/25 08:22:41;;;;;;;0.40;0.40;;;16.30;99.90;;;;;;5054028;28;20209;-90
2022/05/25 08:25:14;;;;;;;0.40;0.40;;;16.10;99.90;;;;;;5063178;28;20246;-89
2022/05/25 08:27:40;;;;;;;0.40;0.40;;;15.80;99.90;;;;;;5062714;28;20222;-87
2022/05/25 08:30:18;;;;;;;0.30;0.30;;;15.70;99.90;;;;;;5079821;28;20200;-90
2022/05/25 08:32:44;;;;;;;0.50;0.50;;;15.40;99.90;;;;;;5059439;28;20611;-90
2022/05/25 08:35:10;;;;;;;0.47;0.47;;;15.00;99.90;;;;;;5058283;28;20643;-88
2022/05/25 08:37:36;;;;;;;0.80;0.80;;;14.70;99.90;;;;;;5063919;28;20628;-88
2022/05/25 08:40:03;;;;;;;0.68;0.68;;;15.00;99.90;;;;;;5063224;28;20216;-87
2022/05/25 08:42:36;;;;;;;0.50;0.50;;;15.30;99.90;;;;;;5047102;28;20189;-91
2022/05/25 08:45:02;;;;;;;0.47;0.47;;;15.50;99.90;;;;;;5064157;28;20264;-91
2022/05/25 08:47:27;;;;;;;0.55;0.55;;;15.80;99.90;;;;;;5063542;28;20265;-91
2022/05/25 08:49:56;;;;;;;0.60;0.60;;;16.00;99.90;;;;;;5042636;28;20569;-92
2022/05/25 08:52:34;;;;;;;0.40;0.40;;;15.90;99.90;;;;;;5039597;28;20699;-91
2022/05/25 08:55:02;;;;;;;0.40;0.40;;;16.00;99.90;;;;;;5037739;28;20209;-86
2022/05/25 08:57:59;;;;;;;1.10;1.05;;;15.90;99.90;;;;;;5039775;28;20305;-91
2022/05/25 09:00:25;;;;;;;0.50;0.50;;;16.00;99.90;;;;;;5034219;28;20229;-91
2022/05/25 09:03:09;;;;;;;0.38;0.38;;;16.20;99.90;;;;;;5037244;28;20604;-90
2022/05/25 09:05:44;;;;;;;0.30;0.30;;;16.20;99.90;;;;;;5039456;28;20193;-89
2022/05/25 09:08:45;;;;;;;0.40;0.40;;;16.40;99.90;;;;;;5040519;28;20205;-91
2022/05/25 09:11:18;;;;;;;0.43;0.43;;;16.40;99.90;;;;;;5043632;28;20196;-91
2022/05/25 09:13:54;;;;;;;0.47;0.47;;;16.90;99.90;;;;;;5041189;28;20201;-89
2022/05/25 09:16:23;;;;;;;0.30;0.30;;;17.30;99.90;;;;;;5040838;28;20676;-90
2022/05/25 09:19:00;;;;;;;0.40;0.40;;;17.20;99.90;;;;;;5081295;28;20232;-91
2022/05/25 09:21:32;;;;;;;0.50;0.50;;;17.50;99.90;;;;;;5080052;28;20549;-90
2022/05/25 09:24:03;;;;;;;0.40;0.40;;;17.70;99.90;;;;;;5081757;28;20192;-91
2022/05/25 09:26:29;;;;;;;0.25;0.25;;;18.10;99.90;;;;;;5074990;28;20279;-93
2022/05/25 09:28:59;;;;;;;0.30;0.30;;;18.20;99.90;;;;;;5068458;28;20220;-88
2022/05/25 09:31:33;;;;;;;0.77;0.55;;;18.30;99.90;;;;;;5067279;28;20197;-92
2022/05/25 09:34:03;;;;;;;0.30;0.30;;;18.40;99.90;;;;;;5062840;28;20201;-91
2022/05/25 09:36:46;;;;;;;1.17;0.95;;;18.50;99.90;;;;;;5045329;28;20205;-90
2022/05/25 09:39:14;;;;;;;0.30;0.30;;;18.30;99.90;;;;;;5046533;28;20624;-91
2022/05/25 09:41:45;;;;;;;0.20;0.20;;;18.50;99.90;;;;;;5045278;28;20259;-93
2022/05/25 09:44:19;;;;;;;0.30;0.30;;;18.20;99.90;;;;;;5046379;28;20195;-91
2022/05/25 09:46:57;;;;;;;0.47;0.47;;;18.40;99.90;;;;;;5063637;28;20200;-89
2022/05/25 09:49:28;;;;;;;0.30;0.30;;;18.10;99.90;;;;;;5064619;28;20203;-91
2022/05/25 09:51:54;;;;;;;0.35;0.35;;;17.50;99.90;;;;;;5064910;28;20197;-92
2022/05/25 09:54:20;;;;;;;0.30;0.30;;;17.60;99.90;;;;;;5065988;28;20197;-90
2022/05/25 09:56:53;;;;;;;0.20;0.20;;;17.90;99.90;;;;;;5083417;28;20201;-92
2022/05/25 09:59:30;;;;;;;1.05;1.00;;;18.10;99.90;;;;;;5065756;28;20189;-92
2022/05/25 10:01:56;;;;;;;2.58;0.50;;;17.00;99.90;;;;;;5065998;28;20192;-91
2022/05/25 10:04:51;;;;;;;0.63;0.60;;;17.30;99.90;;;;;;5065700;28;20212;-90
2022/05/25 10:07:20;;;;;;;0.45;0.45;;;17.80;99.90;;;;;;5071736;28;20255;-91
2022/05/25 10:09:51;;;;;;;0.30;0.30;;;18.50;99.90;;;;;;5084233;28;20199;-91
2022/05/25 10:12:25;;;;;;;0.22;0.22;;;19.40;99.90;;;;;;5084952;28;20609;-90
2022/05/25 10:15:04;;;;;;;0.45;0.45;;;19.40;99.90;;;;;;5082756;28;20208;-91
2022/05/25 10:17:40;;;;;;;0.45;0.45;;;18.80;99.90;;;;;;5082810;28;20260;-92
2022/05/25 10:20:19;;;;;;;0.80;0.60;;;18.20;99.90;;;;;;5066561;28;20550;-90
2022/05/25 10:22:45;;;;;;;0.30;0.30;;;17.60;99.90;;;;;;5086122;28;20200;-92
2022/05/25 10:25:34;;;;;;;0.70;0.50;;;17.50;99.90;;;;;;5084289;28;20192;-91
2022/05/25 10:28:02;;;;;;;2.20;1.48;;;17.00;99.90;;;;;;5048625;28;20198;-92
2022/05/25 10:38:50;;;;;;;0.30;0.30;;;17.20;99.90;;;;;;5067676;28;20204;-92
2022/05/25 10:41:37;;;;;;;0.28;0.28;;;17.10;99.90;;;;;;5059165;28;20217;-91
2022/05/25 10:44:21;;;;;;;0.40;0.40;;;17.00;99.90;;;;;;5068955;28;20283;-92
2022/05/25 10:46:54;;;;;;;0.30;0.30;;;17.00;99.90;;;;;;5068354;28;20197;-92
2022/05/25 10:49:47;;;;;;;0.30;0.30;;;17.00;99.90;;;;;;5065729;28;20200;-91
2022/05/25 10:52:41;;;;;;;0.30;0.30;;;17.30;99.90;;;;;;5066413;28;20655;-90
2022/05/25 10:55:08;;;;;;;0.40;0.40;;;17.80;99.90;;;;;;5068756;28;20559;-94
2022/05/25 10:58:07;;;;;;;0.40;0.40;;;17.10;99.90;;;;;;5067909;28;20220;-92
2022/05/25 11:00:45;;;;;;;0.47;0.47;;;17.00;99.90;;;;;;5047842;28;20667;-92
2022/05/25 11:03:32;;;;;;;0.30;0.30;;;16.40;99.90;;;;;;5085284;28;20193;-93
2022/05/25 11:06:16;;;;;;;0.43;0.43;;;16.20;99.90;;;;;;5065288;28;20192;-91
2022/05/25 11:09:12;;;;;;;0.52;0.50;;;16.70;99.90;;;;;;5062988;28;20193;-88
2022/05/25 11:12:19;;;;;;;0.40;0.40;;;17.30;99.90;;;;;;5066081;28;20227;-92
2022/05/25 11:14:48;;;;;;;0.40;0.40;;;17.40;99.90;;;;;;5065502;28;20284;-92
2022/05/25 11:17:38;;;;;;;0.25;0.25;;;17.00;99.90;;;;;;5065474;28;20236;-91
2022/05/25 11:20:20;;;;;;;0.50;0.43;;;16.50;99.90;;;;;;5064838;28;20196;-89
2022/05/25 11:23:07;;;;;;;0.40;0.40;;;15.70;99.90;;;;;;5086464;28;20197;-89
2022/05/25 11:25:57;;;;;;;0.40;0.40;;;15.10;99.90;;;;;;5066399;28;20207;-90
2022/05/25 11:28:35;;;;;;;0.40;0.40;;;14.80;99.90;;;;;;5068818;28;20219;-90
2022/05/25 11:31:06;;;;;;;0.32;0.32;;;14.50;99.90;;;;;;5070519;28;20212;-92
2022/05/25 11:33:47;;;;;;;3.70;0.77;;;14.50;99.90;;;;;;5070410;28;20204;-92
2022/05/25 11:36:43;;;;;;;0.35;0.35;;;14.60;99.90;;;;;;5086348;28;20195;-91
2022/05/25 11:39:43;;;;;;;0.40;0.40;;;15.30;99.90;;;;;;5048900;28;20240;-91
2022/05/25 11:42:12;;;;;;;0.40;0.40;;;16.00;99.90;;;;;;5047601;28;20194;-90
2022/05/25 11:44:38;;;;;;;0.30;0.30;;;16.10;99.90;;;;;;5047899;28;20197;-92
2022/05/25 11:47:15;;;;;;;0.40;0.40;;;16.00;99.90;;;;;;5047374;28;20779;-93
2022/05/25 11:50:19;;;;;;;0.32;0.32;;;16.10;99.90;;;;;;5065364;28;20201;-92
2022/05/25 11:53:18;;;;;;;0.38;0.38;;;15.90;99.90;;;;;;5047751;28;20339;-93
2022/05/25 11:56:02;;;;;;;0.30;0.30;;;15.70;99.90;;;;;;5049260;28;20227;-93
2022/05/25 11:58:39;;;;;;;0.30;0.30;;;15.80;99.90;;;;;;5049385;28;20209;-93
2022/05/25 12:01:44;;;;;;;0.38;0.38;;;15.90;99.90;;;;;;5086543;28;20180;-91
2022/05/25 12:05:01;;;;;;;0.30;0.30;;;16.00;99.90;;;;;;5068776;28;20634;-91
2022/05/25 12:07:38;;;;;;;1.00;0.65;;;16.00;99.90;;;;;;5043004;28;20200;-91
2022/05/25 12:10:29;;;;;;;0.30;0.30;;;16.10;99.90;;;;;;5069201;28;20220;-93
2022/05/25 12:13:16;;;;;;;0.32;0.32;;;16.40;99.90;;;;;;5069599;28;20260;-91
2022/05/25 12:16:07;;;;;;;0.52;0.52;;;16.30;99.90;;;;;;5070946;28;20197;-92
2022/05/25 12:19:03;;;;;;;0.40;0.40;;;16.20;99.90;;;;;;5075655;28;20240;-92
2022/05/25 12:21:49;;;;;;;0.35;0.35;;;16.50;99.90;;;;;;5072539;28;20264;-91
2022/05/25 12:24:20;;;;;;;0.40;0.40;;;17.10;99.90;;;;;;5050418;28;20204;-91
2022/05/25 12:26:46;;;;;;;0.38;0.38;;;17.40;99.90;;;;;;5050466;28;20205;-93
2022/05/25 12:29:31;;;;;;;0.30;0.30;;;17.30;99.90;;;;;;5050476;28;20283;-94
2022/05/25 12:31:57;;;;;;;0.32;0.32;;;17.10;99.90;;;;;;5050269;28;20264;-93
2022/05/25 12:34:46;;;;;;;0.30;0.30;;;17.20;99.90;;;;;;5064670;28;20200;-93
2022/05/25 12:37:15;;;;;;;0.30;0.30;;;17.30;99.90;;;;;;5061358;28;20353;-93
2022/05/25 12:40:07;;;;;;;0.20;0.20;;;17.00;99.90;;;;;;5066797;28;20205;-92
2022/05/25 12:42:36;;;;;;;0.77;0.70;;;16.50;99.90;;;;;;5065345;28;20221;-92
2022/05/25 12:48:35;;;;;;;2.45;0.88;;;16.30;99.90;;;;;;5050976;28;20211;-91
2022/05/25 12:51:38;;;;;;;0.30;0.30;;;16.10;99.90;;;;;;5067630;28;20651;-94
2022/05/25 12:54:20;;;;;;;0.40;0.40;;;16.70;99.90;;;;;;5052850;28;20212;-93
2022/05/25 12:56:47;;;;;;;0.32;0.32;;;16.90;99.90;;;;;;5076494;28;20212;-92
2022/05/25 12:59:25;;;;;;;0.30;0.30;;;16.80;99.90;;;;;;5086047;28;20655;-93
2022/05/25 13:02:18;;;;;;;0.30;0.30;;;16.60;99.90;;;;;;5087894;28;20726;-94
2022/05/25 13:04:48;;;;;;;0.40;0.40;;;16.30;99.90;;;;;;5089223;28;20207;-94
2022/05/25 13:07:39;;;;;;;0.40;0.40;;;16.40;99.90;;;;;;5086802;28;20223;-93
2022/05/25 13:10:19;;;;;;;0.38;0.38;;;16.50;99.90;;;;;;5085622;28;20227;-93
2022/05/25 13:12:48;;;;;;;0.30;0.30;;;16.50;99.90;;;;;;5084782;28;20260;-93
2022/05/25 13:15:19;;;;;;;0.32;0.32;;;16.80;99.90;;;;;;5084504;28;20224;-93
2022/05/25 13:17:50;;;;;;;0.40;0.40;;;16.70;99.90;;;;;;5084343;28;20224;-93
2022/05/25 13:20:48;;;;;;;0.25;0.25;;;16.50;99.90;;;;;;5067949;28;20196;-92
2022/05/25 13:23:51;;;;;;;0.50;0.50;;;16.30;99.90;;;;;;5074663;28;20722;-94
2022/05/25 13:26:59;;;;;;;0.40;0.40;;;16.20;99.90;;;;;;5088749;28;20647;-93
2022/05/25 13:29:35;;;;;;;0.30;0.30;;;16.20;99.90;;;;;;5050698;28;20196;-92
2022/05/25 13:32:09;;;;;;;0.30;0.30;;;16.30;99.90;;;;;;5070832;28;20192;-95
2022/05/25 13:34:35;;;;;;;0.30;0.30;;;16.40;99.90;;;;;;5069791;28;20733;-94
2022/05/25 13:37:06;;;;;;;0.45;0.45;;;16.40;99.90;;;;;;5086076;28;20208;-90
2022/05/25 13:39:33;;;;;;;0.30;0.30;;;16.50;99.90;;;;;;5070414;28;20203;-93
2022/05/25 13:42:31;;;;;;;0.40;0.40;;;16.40;99.90;;;;;;5071726;28;20260;-94
2022/05/25 13:45:05;;;;;;;0.30;0.30;;;16.40;99.90;;;;;;5053967;28;20208;-90
2022/05/25 13:47:31;;;;;;;0.30;0.30;;;16.50;99.90;;;;;;5067638;28;20228;-92
2022/05/25 13:50:00;;;;;;;0.30;0.30;;;16.90;99.90;;;;;;5069110;28;20208;-93
2022/05/25 13:52:29;;;;;;;0.20;0.20;;;17.10;99.90;;;;;;5067923;28;20213;-93